Time;durP1;ratioP1;P1;durP2;ratioP2;P2;SDS_P1;SDS_P2;PMS_P1;PMS_P2;Temp;Humidity;BMP_temperature;BMP_pressure;BME280_temperature;BME280_humidity;BME280_pressure;Samples;Min_cycle;Max_cycle;Signal;HPM_P1;HPM_P2
2021/03/02 00:02:20;;;;;;;40.53;21.38;;;2.70;99.90;;;;;;5114969;28;20275;-79
2021/03/02 00:04:47;;;;;;;34.05;19.25;;;2.70;99.90;;;;;;5114930;28;20294;-79
2021/03/02 00:07:13;;;;;;;29.38;17.48;;;2.70;99.90;;;;;;5114714;28;20274;-78
2021/03/02 00:09:40;;;;;;;34.50;19.90;;;2.60;99.90;;;;;;5114755;28;20638;-78
2021/03/02 00:12:09;;;;;;;29.52;18.60;;;2.60;99.90;;;;;;5114824;28;20211;-78
2021/03/02 00:14:36;;;;;;;27.00;16.30;;;2.60;99.90;;;;;;5111046;28;20615;-78
2021/03/02 00:17:08;;;;;;;30.98;18.35;;;2.60;99.90;;;;;;5094491;28;20283;-78
2021/03/02 00:19:40;;;;;;;28.73;16.98;;;2.50;99.90;;;;;;5094080;28;20683;-78
2021/03/02 00:22:13;;;;;;;25.17;16.27;;;2.50;99.90;;;;;;5094026;28;20355;-78
2021/03/02 00:24:41;;;;;;;26.50;15.80;;;2.50;99.90;;;;;;5094106;28;20245;-78
2021/03/02 00:27:11;;;;;;;21.67;14.60;;;2.50;99.90;;;;;;5094189;28;20224;-79
2021/03/02 00:29:41;;;;;;;23.88;14.40;;;2.50;99.90;;;;;;5094123;28;20220;-79
2021/03/02 00:32:08;;;;;;;22.00;13.55;;;2.50;99.90;;;;;;5093821;28;20314;-79
2021/03/02 00:34:34;;;;;;;19.15;12.55;;;2.40;99.90;;;;;;5093920;28;20272;-79
2021/03/02 00:37:00;;;;;;;22.80;14.77;;;2.40;99.90;;;;;;5094293;28;20212;-79
2021/03/02 00:39:26;;;;;;;20.40;13.90;;;2.40;99.90;;;;;;5094034;28;20200;-79
2021/03/02 00:41:52;;;;;;;20.27;13.47;;;2.30;99.90;;;;;;5093834;28;20500;-79
2021/03/02 00:44:18;;;;;;;25.13;14.33;;;2.20;99.90;;;;;;5093781;28;20425;-79
2021/03/02 00:46:45;;;;;;;23.08;13.93;;;2.20;99.90;;;;;;5093950;28;20546;-79
2021/03/02 00:49:11;;;;;;;22.45;12.73;;;2.10;99.90;;;;;;5111569;28;20274;-79
2021/03/02 00:51:37;;;;;;;21.50;14.30;;;2.10;99.90;;;;;;5113963;28;20219;-79
2021/03/02 00:54:03;;;;;;;24.00;14.15;;;2.10;99.90;;;;;;5114030;28;20282;-78
2021/03/02 00:56:29;;;;;;;21.77;12.80;;;2.00;99.90;;;;;;5114045;28;20256;-78
2021/03/02 00:58:55;;;;;;;20.10;13.40;;;2.00;99.90;;;;;;5113644;28;20719;-78
2021/03/02 01:01:22;;;;;;;20.38;13.85;;;2.00;99.90;;;;;;5113837;28;20558;-78
2021/03/02 01:03:48;;;;;;;20.17;13.52;;;2.00;99.90;;;;;;5113463;28;20647;-78
2021/03/02 01:06:14;;;;;;;25.55;15.13;;;1.90;99.90;;;;;;5113793;28;20524;-78
2021/03/02 01:08:41;;;;;;;17.13;12.52;;;1.90;99.90;;;;;;5113533;28;20219;-78
2021/03/02 01:11:07;;;;;;;20.77;12.77;;;1.90;99.90;;;;;;5113811;28;20306;-79
2021/03/02 01:13:33;;;;;;;24.13;14.00;;;1.90;99.90;;;;;;5113485;28;20738;-79
2021/03/02 01:15:59;;;;;;;25.83;15.10;;;1.90;99.90;;;;;;5113556;28;20223;-79
2021/03/02 01:18:25;;;;;;;27.63;15.48;;;1.90;99.90;;;;;;5113220;28;20215;-79
2021/03/02 01:20:52;;;;;;;21.27;14.00;;;1.80;99.90;;;;;;5113496;28;20291;-79
2021/03/02 01:23:18;;;;;;;22.63;13.90;;;1.80;99.90;;;;;;5113615;28;20188;-79
2021/03/02 01:25:44;;;;;;;26.08;14.20;;;1.90;99.90;;;;;;5113606;28;20274;-79
2021/03/02 01:28:10;;;;;;;29.75;16.50;;;1.90;99.90;;;;;;5113400;28;20195;-79
2021/03/02 01:30:37;;;;;;;29.48;16.48;;;1.90;99.90;;;;;;5113251;28;20634;-77
2021/03/02 01:33:03;;;;;;;30.45;19.00;;;2.00;99.90;;;;;;5113005;28;20310;-78
2021/03/02 01:35:29;;;;;;;32.10;19.67;;;1.90;99.90;;;;;;5113374;28;20284;-78
2021/03/02 01:37:56;;;;;;;30.38;18.08;;;1.90;99.90;;;;;;5113291;28;20223;-78
2021/03/02 01:40:23;;;;;;;29.83;17.58;;;1.90;99.90;;;;;;5113186;28;20278;-79
2021/03/02 01:42:49;;;;;;;32.08;19.20;;;1.90;99.90;;;;;;5113087;28;20183;-79
2021/03/02 01:45:19;;;;;;;33.05;19.77;;;1.90;99.90;;;;;;5113108;28;20291;-79
2021/03/02 01:47:47;;;;;;;32.97;19.17;;;1.90;99.90;;;;;;5113071;28;20286;-79
2021/03/02 01:50:13;;;;;;;36.67;20.67;;;1.90;99.90;;;;;;5112998;28;20676;-79
2021/03/02 01:52:40;;;;;;;42.80;22.83;;;1.90;99.90;;;;;;5112837;28;20211;-79
2021/03/02 01:55:08;;;;;;;29.90;18.52;;;1.80;99.90;;;;;;5113066;28;20282;-79
2021/03/02 01:57:35;;;;;;;40.25;22.67;;;1.80;99.90;;;;;;5113142;28;20279;-79
2021/03/02 02:00:05;;;;;;;38.55;20.95;;;1.80;99.90;;;;;;5112810;28;20282;-79
2021/03/02 02:02:37;;;;;;;39.97;20.02;;;1.80;99.90;;;;;;5113223;28;20279;-79
2021/03/02 02:05:06;;;;;;;41.00;21.77;;;1.80;99.90;;;;;;5113077;28;20299;-79
2021/03/02 02:07:37;;;;;;;39.10;21.67;;;1.80;99.90;;;;;;5112945;28;20643;-78
2021/03/02 02:10:09;;;;;;;35.83;20.67;;;1.80;99.90;;;;;;5112753;28;20242;-78
2021/03/02 02:12:39;;;;;;;35.58;20.02;;;1.90;99.90;;;;;;5113010;28;20279;-78
2021/03/02 02:15:08;;;;;;;38.70;20.92;;;1.80;99.90;;;;;;5107762;28;20271;-79
2021/03/02 02:17:39;;;;;;;34.58;20.50;;;1.80;99.90;;;;;;5092708;28;20273;-78
2021/03/02 02:20:08;;;;;;;35.03;20.98;;;1.80;99.90;;;;;;5092480;28;20284;-78
2021/03/02 02:23:03;;;;;;;34.47;19.27;;;1.80;99.90;;;;;;5092416;28;20276;-78
2021/03/02 02:25:42;;;;;;;32.63;18.42;;;1.70;99.90;;;;;;5092548;28;20283;-78
2021/03/02 02:28:11;;;;;;;29.70;17.75;;;1.60;99.90;;;;;;5092790;28;20599;-79
2021/03/02 02:30:39;;;;;;;29.98;18.15;;;1.70;99.90;;;;;;5092240;28;20228;-79
2021/03/02 02:33:07;;;;;;;28.42;17.55;;;1.70;99.90;;;;;;5092374;28;20314;-79
2021/03/02 02:35:35;;;;;;;32.85;19.23;;;1.60;99.90;;;;;;5092171;28;20618;-79
2021/03/02 02:38:04;;;;;;;27.95;17.58;;;1.60;99.90;;;;;;5092490;28;20715;-79
2021/03/02 02:40:30;;;;;;;26.77;16.02;;;1.70;99.90;;;;;;5092370;28;20602;-78
2021/03/02 02:42:57;;;;;;;25.30;16.08;;;1.70;99.90;;;;;;5092385;28;20227;-79
2021/03/02 02:45:25;;;;;;;25.40;16.27;;;1.70;99.90;;;;;;5092320;28;20287;-79
2021/03/02 02:47:52;;;;;;;31.65;16.48;;;1.70;99.90;;;;;;5099058;28;20184;-79
2021/03/02 02:50:19;;;;;;;22.45;14.27;;;1.70;99.90;;;;;;5112631;28;20647;-79
2021/03/02 02:52:46;;;;;;;25.80;14.25;;;1.70;99.90;;;;;;5112611;28;20287;-79
2021/03/02 02:55:15;;;;;;;25.63;15.85;;;1.80;99.90;;;;;;5112494;28;20271;-80
2021/03/02 02:57:44;;;;;;;22.73;14.88;;;1.80;99.90;;;;;;5112583;28;20188;-79
2021/03/02 03:00:12;;;;;;;23.55;14.63;;;1.80;99.90;;;;;;5112459;28;20192;-79
2021/03/02 03:02:43;;;;;;;24.38;14.23;;;1.70;99.90;;;;;;5112602;28;20276;-78
2021/03/02 03:05:14;;;;;;;23.35;13.82;;;1.70;99.90;;;;;;5115036;28;20283;-79
2021/03/02 03:07:44;;;;;;;22.92;14.02;;;1.70;99.90;;;;;;5116161;28;20283;-79
2021/03/02 03:10:11;;;;;;;20.90;12.70;;;1.70;99.90;;;;;;5115850;28;20212;-79
2021/03/02 03:12:41;;;;;;;20.33;14.90;;;1.70;99.90;;;;;;5115897;28;20691;-79
2021/03/02 03:15:10;;;;;;;22.73;12.60;;;1.70;99.90;;;;;;5115822;28;20276;-79
2021/03/02 03:17:39;;;;;;;19.60;13.82;;;1.60;99.90;;;;;;5116070;28;20235;-80
2021/03/02 03:20:10;;;;;;;21.17;13.82;;;1.60;99.90;;;;;;5115820;28;20286;-78
2021/03/02 03:22:37;;;;;;;27.88;14.45;;;1.50;99.90;;;;;;5115986;28;20763;-79
2021/03/02 03:25:05;;;;;;;24.40;13.48;;;1.50;99.90;;;;;;5115744;28;20274;-79
2021/03/02 03:27:34;;;;;;;20.05;11.77;;;1.50;99.90;;;;;;5115599;28;20651;-79
2021/03/02 03:30:03;;;;;;;23.67;14.10;;;1.50;99.90;;;;;;5115625;28;20294;-79
2021/03/02 03:32:31;;;;;;;23.30;16.02;;;1.50;99.90;;;;;;5115471;28;20258;-78
2021/03/02 03:34:59;;;;;;;19.10;12.32;;;1.50;99.90;;;;;;5115644;28;20192;-78
2021/03/02 03:37:26;;;;;;;20.48;14.02;;;1.50;99.90;;;;;;5113938;28;20283;-78
2021/03/02 03:39:52;;;;;;;22.40;12.70;;;1.50;99.90;;;;;;5115504;28;20279;-78
2021/03/02 03:42:18;;;;;;;22.73;15.30;;;1.50;99.90;;;;;;5115342;28;20188;-79
2021/03/02 03:44:44;;;;;;;25.10;13.35;;;1.50;99.90;;;;;;5115261;28;20485;-78
2021/03/02 03:47:10;;;;;;;26.85;15.18;;;1.50;99.90;;;;;;5115385;28;20199;-78
2021/03/02 03:49:36;;;;;;;18.75;13.27;;;1.50;99.90;;;;;;5115217;28;20283;-78
2021/03/02 03:52:06;;;;;;;23.55;13.00;;;1.50;99.90;;;;;;5115533;28;20220;-78
2021/03/02 03:54:34;;;;;;;21.88;14.65;;;1.50;99.90;;;;;;5114992;28;20227;-78
2021/03/02 03:57:01;;;;;;;20.70;13.55;;;1.50;99.90;;;;;;5115278;28;20735;-78
2021/03/02 03:59:28;;;;;;;18.67;12.90;;;1.50;99.90;;;;;;5115072;28;20594;-78
2021/03/02 04:01:55;;;;;;;21.50;12.85;;;1.50;99.90;;;;;;5115130;28;20278;-78
2021/03/02 04:04:24;;;;;;;21.15;12.98;;;1.50;99.90;;;;;;5114853;28;20219;-78
2021/03/02 04:06:51;;;;;;;22.02;14.68;;;1.50;99.90;;;;;;5114859;28;20706;-79
2021/03/02 04:09:17;;;;;;;26.92;14.40;;;1.40;99.90;;;;;;5114819;28;20302;-78
2021/03/02 04:11:44;;;;;;;19.45;13.15;;;1.40;99.90;;;;;;5114905;28;20310;-79
2021/03/02 04:14:10;;;;;;;21.48;13.93;;;1.40;99.90;;;;;;5114724;28;20212;-79
2021/03/02 04:16:36;;;;;;;27.77;13.52;;;1.40;99.90;;;;;;5098763;28;20283;-78
2021/03/02 04:19:03;;;;;;;19.80;13.20;;;1.40;99.90;;;;;;5094305;28;20283;-78
2021/03/02 04:21:29;;;;;;;21.17;13.60;;;1.40;99.90;;;;;;5094377;28;20283;-77
2021/03/02 04:23:55;;;;;;;21.35;12.80;;;1.40;99.90;;;;;;5093968;28;20283;-78
2021/03/02 04:26:21;;;;;;;21.53;13.73;;;1.50;99.90;;;;;;5093990;28;20224;-78
2021/03/02 04:28:48;;;;;;;24.17;14.13;;;1.50;99.90;;;;;;5094223;28;20538;-78
2021/03/02 04:31:15;;;;;;;21.20;13.65;;;1.50;99.90;;;;;;5093760;28;20314;-79
2021/03/02 04:33:41;;;;;;;21.33;14.80;;;1.50;99.90;;;;;;5093901;28;20703;-78
2021/03/02 04:36:08;;;;;;;21.80;14.30;;;1.60;99.90;;;;;;5093872;28;20235;-78
2021/03/02 04:38:34;;;;;;;27.20;14.15;;;1.50;99.90;;;;;;5094184;28;20287;-78
2021/03/02 04:41:00;;;;;;;23.60;14.13;;;1.60;99.90;;;;;;5093900;28;20194;-78
2021/03/02 04:43:26;;;;;;;22.17;13.10;;;1.60;99.90;;;;;;5093750;28;20299;-77
2021/03/02 04:45:54;;;;;;;19.27;13.35;;;1.60;99.90;;;;;;5093876;28;20224;-78
2021/03/02 04:48:20;;;;;;;24.30;15.07;;;1.60;99.90;;;;;;5104492;28;20376;-78
2021/03/02 04:50:46;;;;;;;20.23;14.13;;;1.60;99.90;;;;;;5113940;28;20304;-78
2021/03/02 04:53:12;;;;;;;24.55;15.18;;;1.60;99.90;;;;;;5114181;28;20278;-78
2021/03/02 04:55:38;;;;;;;21.00;13.90;;;1.60;99.90;;;;;;5114075;28;20229;-78
2021/03/02 04:58:04;;;;;;;21.38;14.95;;;1.60;99.90;;;;;;5114235;28;20283;-78
2021/03/02 05:00:30;;;;;;;26.42;15.07;;;1.60;99.90;;;;;;5113975;28;20223;-78
2021/03/02 05:02:57;;;;;;;22.10;13.73;;;1.60;99.90;;;;;;5114024;28;20223;-78
2021/03/02 05:05:23;;;;;;;23.25;14.55;;;1.50;99.90;;;;;;5113665;28;20707;-78
2021/03/02 05:07:49;;;;;;;20.38;13.82;;;1.50;99.90;;;;;;5113849;28;20291;-78
2021/03/02 05:10:15;;;;;;;26.27;14.93;;;1.50;99.90;;;;;;5113558;28;20737;-78
2021/03/02 05:12:41;;;;;;;27.45;15.10;;;1.50;99.90;;;;;;5113867;28;20237;-78
2021/03/02 05:15:08;;;;;;;18.53;12.90;;;1.50;99.90;;;;;;5113668;28;20191;-78
2021/03/02 05:17:35;;;;;;;21.40;13.90;;;1.50;99.90;;;;;;5113813;28;20481;-78
2021/03/02 05:20:02;;;;;;;23.05;14.13;;;1.50;99.90;;;;;;5113309;28;20283;-80
2021/03/02 05:22:28;;;;;;;19.35;13.30;;;1.40;99.90;;;;;;5113398;28;20670;-84
2021/03/02 05:24:53;;;;;;;25.52;14.70;;;1.50;99.90;;;;;;5113533;28;20220;-83
2021/03/02 05:27:19;;;;;;;19.50;13.27;;;1.40;99.90;;;;;;5112937;28;20194;-84
2021/03/02 05:29:45;;;;;;;27.05;14.07;;;1.40;99.90;;;;;;5113249;28;20488;-86
2021/03/02 05:32:12;;;;;;;24.00;13.95;;;1.40;99.90;;;;;;5113300;28;20224;-85
2021/03/02 05:34:38;;;;;;;25.13;14.00;;;1.40;99.90;;;;;;5113173;28;20651;-86
2021/03/02 05:37:05;;;;;;;21.40;13.52;;;1.40;99.90;;;;;;5113512;28;20613;-86
2021/03/02 05:39:31;;;;;;;31.08;19.90;;;1.40;99.90;;;;;;5113278;28;20274;-83
2021/03/02 05:41:57;;;;;;;35.25;16.40;;;1.40;99.90;;;;;;5113344;28;20224;-85
2021/03/02 05:44:24;;;;;;;26.38;14.15;;;1.40;99.90;;;;;;5113219;28;20283;-81
2021/03/02 05:46:51;;;;;;;24.23;14.50;;;1.40;99.90;;;;;;5113117;28;20223;-81
2021/03/02 05:49:17;;;;;;;20.98;12.88;;;1.40;99.90;;;;;;5110903;28;20279;-82
2021/03/02 05:51:43;;;;;;;29.38;14.57;;;1.40;99.90;;;;;;5112852;28;20248;-82
2021/03/02 05:54:11;;;;;;;19.15;11.73;;;1.40;99.90;;;;;;5113045;28;20290;-83
2021/03/02 05:56:38;;;;;;;18.40;11.45;;;1.40;99.90;;;;;;5112834;28;20599;-83
2021/03/02 05:59:04;;;;;;;20.08;12.00;;;1.40;99.90;;;;;;5112276;28;20276;-84
2021/03/02 06:01:30;;;;;;;20.75;12.50;;;1.40;99.90;;;;;;5112652;28;20286;-83
2021/03/02 06:03:56;;;;;;;21.80;12.30;;;1.40;99.90;;;;;;5112762;28;20220;-84
2021/03/02 06:06:22;;;;;;;17.13;11.98;;;1.50;99.90;;;;;;5112402;28;20703;-83
2021/03/02 06:08:48;;;;;;;19.10;13.43;;;1.50;99.90;;;;;;5112848;28;20216;-84
2021/03/02 06:11:27;;;;;;;15.60;10.55;;;1.50;99.90;;;;;;5112656;28;20243;-83
2021/03/02 06:13:54;;;;;;;20.52;13.18;;;1.50;99.90;;;;;;5112766;28;20240;-83
2021/03/02 06:16:21;;;;;;;17.83;11.30;;;1.50;99.90;;;;;;5101459;28;20305;-84
2021/03/02 06:18:48;;;;;;;17.25;11.35;;;1.60;99.90;;;;;;5092529;28;20208;-84
2021/03/02 06:21:14;;;;;;;15.65;9.98;;;1.60;99.90;;;;;;5092342;28;20291;-84
2021/03/02 06:23:49;;;;;;;15.50;10.85;;;1.70;99.90;;;;;;5111941;28;20198;-82
2021/03/02 06:26:24;;;;;;;19.83;11.40;;;1.80;99.90;;;;;;5104960;28;20374;-82
2021/03/02 06:28:55;;;;;;;17.90;11.50;;;1.80;99.90;;;;;;5104581;28;20275;-83
2021/03/02 06:31:36;;;;;;;15.43;10.52;;;1.90;99.90;;;;;;5108695;28;20216;-82
2021/03/02 06:34:10;;;;;;;16.77;10.48;;;1.90;99.90;;;;;;5132079;28;20192;-82
2021/03/02 06:36:36;;;;;;;17.52;11.32;;;2.00;99.90;;;;;;5105003;28;20220;-87
2021/03/02 06:39:21;;;;;;;17.38;10.82;;;2.00;99.90;;;;;;5110001;28;20274;-87
2021/03/02 06:41:47;;;;;;;14.10;10.70;;;2.10;99.90;;;;;;5113813;28;20639;-88
2021/03/02 06:44:14;;;;;;;16.83;11.40;;;2.20;99.90;;;;;;5109074;28;20267;-81
2021/03/02 06:46:41;;;;;;;15.15;9.15;;;2.30;99.90;;;;;;5115605;28;20191;-81
2021/03/02 06:49:07;;;;;;;14.77;10.52;;;2.30;99.90;;;;;;5116051;28;20270;-81
2021/03/02 06:51:35;;;;;;;18.23;9.63;;;2.40;99.90;;;;;;5106806;28;20738;-81
2021/03/02 06:54:03;;;;;;;13.30;9.07;;;2.60;99.90;;;;;;5103025;28;20317;-81
2021/03/02 06:56:29;;;;;;;9.98;8.55;;;2.70;99.90;;;;;;5115706;28;20184;-81
2021/03/02 06:59:12;;;;;;;12.75;9.70;;;2.80;99.90;;;;;;5115917;28;20224;-81
2021/03/02 07:01:40;;;;;;;11.60;8.95;;;2.90;99.90;;;;;;5115057;27;20241;-81
2021/03/02 07:04:13;;;;;;;13.32;9.50;;;3.10;99.90;;;;;;5114382;28;20278;-80
2021/03/02 07:06:42;;;;;;;15.30;9.75;;;3.20;99.90;;;;;;5107859;28;20658;-80
2021/03/02 07:09:09;;;;;;;10.50;8.30;;;3.20;99.90;;;;;;5114068;28;20188;-81
2021/03/02 07:11:37;;;;;;;15.63;8.55;;;3.30;99.90;;;;;;5115494;28;20211;-81
2021/03/02 07:14:05;;;;;;;10.43;8.48;;;3.30;99.90;;;;;;5115517;28;20639;-80
2021/03/02 07:16:35;;;;;;;12.00;9.38;;;3.30;99.90;;;;;;5101216;28;20662;-80
2021/03/02 07:19:03;;;;;;;14.32;8.90;;;3.30;99.90;;;;;;5094202;28;20196;-80
2021/03/02 07:21:34;;;;;;;12.50;8.57;;;3.20;99.90;;;;;;5094051;28;20220;-81
2021/03/02 07:24:03;;;;;;;15.23;9.52;;;3.30;99.90;;;;;;5101627;28;20669;-90
2021/03/02 07:26:30;;;;;;;13.13;8.75;;;3.30;99.90;;;;;;5097792;28;20284;-88
2021/03/02 07:28:56;;;;;;;13.23;9.25;;;3.30;99.90;;;;;;5095133;28;20337;-87
2021/03/02 07:31:22;;;;;;;13.77;8.65;;;3.30;99.90;;;;;;5099918;28;20307;-87
2021/03/02 07:33:50;;;;;;;17.27;9.77;;;3.30;99.90;;;;;;5115336;28;20524;-87
2021/03/02 07:36:17;;;;;;;12.02;8.63;;;3.30;99.90;;;;;;5115166;28;20214;-88
2021/03/02 07:38:43;;;;;;;17.67;9.57;;;3.40;99.90;;;;;;5115131;28;20671;-88
2021/03/02 07:41:09;;;;;;;11.15;8.77;;;3.40;99.90;;;;;;5115186;28;20234;-87
2021/03/02 07:43:36;;;;;;;12.38;9.00;;;3.40;99.90;;;;;;5115132;28;20222;-87
2021/03/02 07:46:42;;;;;;;20.23;10.75;;;3.40;99.90;;;;;;5114465;28;20274;-86
2021/03/02 07:49:29;;;;;;;12.55;9.20;;;3.50;99.90;;;;;;5114954;28;20706;-87
2021/03/02 07:52:21;;;;;;;16.75;9.55;;;3.50;99.90;;;;;;5113911;28;20310;-86
2021/03/02 07:54:48;;;;;;;13.48;9.48;;;3.50;99.90;;;;;;5112117;28;20639;-87
2021/03/02 07:57:24;;;;;;;13.70;9.43;;;3.50;99.90;;;;;;5100240;28;20575;-88
2021/03/02 08:00:22;;;;;;;17.52;10.82;;;3.50;99.90;;;;;;5095594;28;20199;-84
2021/03/02 08:03:19;;;;;;;14.90;10.55;;;3.60;99.90;;;;;;5104324;28;20184;-85
2021/03/02 08:05:45;;;;;;;17.15;10.98;;;3.60;99.90;;;;;;5050919;28;20186;-84
2021/03/02 08:08:34;;;;;;;15.70;10.45;;;3.60;99.90;;;;;;5099610;28;20303;-85
2021/03/02 08:11:17;;;;;;;19.52;11.15;;;3.60;99.90;;;;;;5106255;28;20215;-84
2021/03/02 08:13:43;;;;;;;16.20;10.05;;;3.60;99.90;;;;;;5099704;28;20298;-86
2021/03/02 08:16:10;;;;;;;17.70;10.73;;;3.60;99.90;;;;;;5114136;28;20184;-84
2021/03/02 08:18:38;;;;;;;16.92;11.10;;;3.60;99.90;;;;;;5114203;28;20191;-84
2021/03/02 08:21:14;;;;;;;16.00;11.57;;;3.50;99.90;;;;;;5114130;28;20219;-84
2021/03/02 08:23:49;;;;;;;20.65;12.50;;;3.50;99.90;;;;;;5113932;28;20191;-80
2021/03/02 08:26:29;;;;;;;17.15;12.02;;;3.50;99.90;;;;;;5113730;28;20180;-81
2021/03/02 08:29:15;;;;;;;58.45;35.20;;;3.60;99.90;;;;;;5113877;28;20631;-80
2021/03/02 08:31:43;;;;;;;20.45;14.00;;;3.60;99.90;;;;;;5113413;28;20267;-80
2021/03/02 08:34:11;;;;;;;16.17;11.68;;;3.70;99.90;;;;;;5113942;28;20192;-80
2021/03/02 08:36:38;;;;;;;18.52;12.63;;;3.80;99.90;;;;;;5113815;28;20188;-80
2021/03/02 08:39:10;;;;;;;15.65;11.20;;;3.90;99.90;;;;;;5113961;28;20187;-81
2021/03/02 08:41:38;;;;;;;18.70;11.70;;;4.00;99.90;;;;;;5113606;28;20195;-80
2021/03/02 08:44:05;;;;;;;18.77;12.85;;;4.10;99.90;;;;;;5113689;28;20322;-80
2021/03/02 08:46:32;;;;;;;15.85;11.52;;;4.10;99.90;;;;;;5102335;28;20603;-81
2021/03/02 08:49:07;;;;;;;19.45;11.40;;;4.10;99.90;;;;;;5113625;28;20184;-80
2021/03/02 08:51:33;;;;;;;14.68;10.57;;;4.20;99.90;;;;;;5113474;28;20212;-80
2021/03/02 08:53:58;;;;;;;13.90;10.80;;;4.20;99.90;;;;;;5113660;28;20620;-80
2021/03/02 08:56:26;;;;;;;17.70;9.90;;;4.30;99.90;;;;;;5113188;28;20187;-80
2021/03/02 08:58:53;;;;;;;17.38;10.73;;;4.30;99.90;;;;;;5113438;28;20445;-80
2021/03/02 09:01:28;;;;;;;14.05;11.00;;;4.30;99.90;;;;;;5112328;28;20575;-80
2021/03/02 09:04:10;;;;;;;16.77;11.05;;;4.20;99.90;;;;;;5113476;28;20179;-79
2021/03/02 09:06:37;;;;;;;22.63;11.63;;;4.20;99.90;;;;;;5097098;28;20275;-79
2021/03/02 09:09:05;;;;;;;18.67;11.10;;;4.20;99.90;;;;;;5107058;28;20268;-79
2021/03/02 09:11:34;;;;;;;18.77;11.35;;;4.20;99.90;;;;;;5112766;28;20304;-80
2021/03/02 09:14:02;;;;;;;18.45;11.95;;;4.10;99.90;;;;;;5113137;28;20607;-80
2021/03/02 09:16:41;;;;;;;18.25;12.68;;;4.10;99.90;;;;;;5113105;28;20270;-80
2021/03/02 09:19:16;;;;;;;18.60;11.68;;;4.10;99.90;;;;;;5113058;28;20279;-80
2021/03/02 09:21:45;;;;;;;21.35;13.05;;;4.10;99.90;;;;;;5108802;28;20194;-80
2021/03/02 09:24:16;;;;;;;28.63;15.48;;;4.10;99.90;;;;;;5105420;28;20267;-80
2021/03/02 09:26:50;;;;;;;22.88;14.55;;;4.20;99.90;;;;;;5113008;28;20184;-80
2021/03/02 09:29:16;;;;;;;28.52;15.20;;;4.20;99.90;;;;;;5112936;28;20279;-80
2021/03/02 09:31:42;;;;;;;25.00;15.18;;;4.20;99.90;;;;;;5112231;28;20369;-80
2021/03/02 09:34:09;;;;;;;25.27;14.98;;;4.20;99.90;;;;;;5112625;28;20218;-80
2021/03/02 09:36:35;;;;;;;23.77;13.43;;;4.30;99.90;;;;;;5112808;28;20270;-79
2021/03/02 09:39:18;;;;;;;25.90;15.48;;;4.30;99.90;;;;;;5112726;28;20275;-79
2021/03/02 09:41:45;;;;;;;23.77;16.23;;;4.40;99.90;;;;;;5112689;28;20219;-80
2021/03/02 09:44:28;;;;;;;21.98;14.40;;;4.40;99.90;;;;;;5112932;28;20188;-79
2021/03/02 09:46:56;;;;;;;24.25;14.77;;;4.50;99.90;;;;;;5112670;28;20215;-78
2021/03/02 09:49:37;;;;;;;26.88;14.10;;;4.50;99.90;;;;;;5112372;28;20184;-79
2021/03/02 09:52:06;;;;;;;22.75;14.18;;;4.50;99.90;;;;;;5112983;28;20216;-78
2021/03/02 09:54:32;;;;;;;26.25;14.85;;;4.50;99.90;;;;;;5111740;28;20211;-78
2021/03/02 09:56:59;;;;;;;25.58;14.75;;;4.60;99.90;;;;;;5112808;28;20594;-78
2021/03/02 09:59:26;;;;;;;27.30;15.45;;;4.60;99.90;;;;;;5112362;28;20211;-79
2021/03/02 10:01:53;;;;;;;24.13;14.85;;;4.70;99.90;;;;;;5112982;28;20279;-79
2021/03/02 10:04:20;;;;;;;29.50;15.18;;;4.80;99.90;;;;;;5112846;28;20228;-79
2021/03/02 10:06:49;;;;;;;29.15;16.65;;;4.80;99.90;;;;;;5112663;28;20291;-79
2021/03/02 10:09:23;;;;;;;28.10;15.95;;;4.90;99.90;;;;;;5112868;28;20192;-79
2021/03/02 10:12:07;;;;;;;26.55;15.85;;;4.90;99.90;;;;;;5112616;28;20691;-79
2021/03/02 10:14:39;;;;;;;29.58;16.48;;;5.00;99.90;;;;;;5116478;28;20341;-78
2021/03/02 10:17:05;;;;;;;30.48;17.45;;;5.00;99.90;;;;;;5110137;28;20631;-79
2021/03/02 10:19:31;;;;;;;31.20;18.40;;;5.00;99.90;;;;;;5096376;28;20184;-79
2021/03/02 10:21:59;;;;;;;33.28;18.35;;;5.10;99.90;;;;;;5096470;28;20196;-79
2021/03/02 10:24:28;;;;;;;29.10;16.45;;;5.10;99.90;;;;;;5096298;28;20636;-79
2021/03/02 10:26:55;;;;;;;30.60;17.85;;;5.10;99.90;;;;;;5110470;28;20187;-78
2021/03/02 10:29:22;;;;;;;24.45;16.88;;;5.20;99.90;;;;;;5116467;28;20211;-79
2021/03/02 10:31:49;;;;;;;26.40;16.55;;;5.20;99.90;;;;;;5116369;28;20318;-78
2021/03/02 10:34:16;;;;;;;26.33;17.63;;;5.20;99.90;;;;;;5116540;28;20188;-78
2021/03/02 10:36:43;;;;;;;28.45;15.73;;;5.30;99.90;;;;;;5116407;28;20340;-78
2021/03/02 10:39:11;;;;;;;31.83;17.80;;;5.30;99.90;;;;;;5116553;28;20230;-78
2021/03/02 10:41:38;;;;;;;30.73;18.08;;;5.40;99.90;;;;;;5116415;28;20260;-78
2021/03/02 10:44:04;;;;;;;33.08;17.98;;;5.40;99.90;;;;;;5116277;28;20550;-78
2021/03/02 10:46:32;;;;;;;31.25;20.50;;;5.50;99.90;;;;;;5116347;28;20223;-78
2021/03/02 10:48:59;;;;;;;34.75;19.20;;;5.50;99.90;;;;;;5116137;28;20274;-78
2021/03/02 10:51:27;;;;;;;37.05;21.00;;;5.50;99.90;;;;;;5115964;28;20254;-78
2021/03/02 10:53:53;;;;;;;30.63;18.95;;;5.60;99.90;;;;;;5116289;28;20244;-79
2021/03/02 10:56:19;;;;;;;34.28;18.60;;;5.60;99.90;;;;;;5116038;28;20757;-78
2021/03/02 10:58:47;;;;;;;34.55;17.65;;;5.70;99.90;;;;;;5116111;28;20274;-78
2021/03/02 11:01:14;;;;;;;31.92;18.52;;;5.80;99.90;;;;;;5116057;28;20192;-78
2021/03/02 11:03:42;;;;;;;25.92;15.85;;;5.80;99.90;;;;;;5115837;28;20627;-78
2021/03/02 11:06:10;;;;;;;30.25;18.00;;;5.80;99.90;;;;;;5115835;28;20268;-78
2021/03/02 11:08:36;;;;;;;30.65;18.40;;;5.80;99.90;;;;;;5115774;28;20714;-78
2021/03/02 11:11:02;;;;;;;29.25;18.58;;;5.90;99.90;;;;;;5115902;28;20615;-78
2021/03/02 11:13:28;;;;;;;29.40;17.40;;;5.90;99.90;;;;;;5115733;28;20199;-78
2021/03/02 11:15:54;;;;;;;32.03;18.25;;;6.00;99.90;;;;;;5115357;28;20481;-78
2021/03/02 11:18:20;;;;;;;33.07;17.60;;;6.10;99.90;;;;;;5096663;28;20292;-78
2021/03/02 11:20:46;;;;;;;31.17;17.07;;;6.10;99.90;;;;;;5094839;28;21010;-78
2021/03/02 11:23:13;;;;;;;26.83;16.17;;;6.10;99.90;;;;;;5095413;28;20457;-78
2021/03/02 11:25:40;;;;;;;28.92;18.02;;;6.10;99.90;;;;;;5094348;28;20537;-78
2021/03/02 11:28:07;;;;;;;34.22;18.77;;;6.20;99.90;;;;;;5109040;28;20243;-78
2021/03/02 11:30:33;;;;;;;27.80;18.13;;;6.20;99.90;;;;;;5115114;28;20777;-78
2021/03/02 11:32:59;;;;;;;30.60;18.50;;;6.30;99.90;;;;;;5114513;28;20314;-78
2021/03/02 11:35:26;;;;;;;28.35;17.90;;;6.30;99.90;;;;;;5115101;28;20191;-78
2021/03/02 11:37:52;;;;;;;26.15;16.77;;;6.40;99.90;;;;;;5115190;28;20271;-78
2021/03/02 11:40:21;;;;;;;31.25;18.38;;;6.40;99.90;;;;;;5115348;28;20220;-78
2021/03/02 11:42:49;;;;;;;33.35;19.38;;;6.40;99.90;;;;;;5115303;28;20192;-78
2021/03/02 11:45:16;;;;;;;33.65;17.08;;;6.50;99.90;;;;;;5115248;28;20281;-78
2021/03/02 11:47:42;;;;;;;29.25;17.60;;;6.50;99.90;;;;;;5115013;28;20259;-78
2021/03/02 11:50:09;;;;;;;27.98;17.95;;;6.50;99.90;;;;;;5114975;28;20321;-79
2021/03/02 11:52:36;;;;;;;34.93;18.97;;;6.60;99.90;;;;;;5115158;28;20275;-78
2021/03/02 11:55:02;;;;;;;29.42;16.98;;;6.60;99.90;;;;;;5114884;28;21023;-79
2021/03/02 11:57:30;;;;;;;30.10;17.63;;;6.60;99.90;;;;;;5114558;28;20702;-78
2021/03/02 11:59:56;;;;;;;27.05;17.65;;;6.70;99.90;;;;;;5114772;28;20196;-78
2021/03/02 12:02:22;;;;;;;31.97;18.10;;;6.70;99.90;;;;;;5114685;28;20668;-78
2021/03/02 12:04:48;;;;;;;26.83;17.77;;;6.80;99.90;;;;;;5114851;28;20884;-78
2021/03/02 12:07:14;;;;;;;28.50;18.73;;;6.80;99.90;;;;;;5114883;28;20636;-78
2021/03/02 12:09:40;;;;;;;24.80;17.30;;;6.90;99.90;;;;;;5114831;28;20381;-79
2021/03/02 12:12:07;;;;;;;27.60;16.23;;;6.90;99.90;;;;;;5114522;28;20597;-78
2021/03/02 12:14:35;;;;;;;31.80;18.30;;;6.90;99.90;;;;;;5114548;28;20485;-78
2021/03/02 12:17:01;;;;;;;30.50;17.23;;;7.00;99.90;;;;;;5108782;28;20276;-78
2021/03/02 12:19:28;;;;;;;32.00;17.75;;;7.10;99.90;;;;;;5094263;28;20559;-79
2021/03/02 12:21:54;;;;;;;29.93;18.87;;;7.20;99.90;;;;;;5094303;28;20295;-78
2021/03/02 12:24:20;;;;;;;29.60;17.60;;;7.30;99.90;;;;;;5109861;28;20536;-78
2021/03/02 12:26:46;;;;;;;30.63;18.23;;;7.40;99.90;;;;;;5113981;28;20279;-78
2021/03/02 12:29:13;;;;;;;32.10;18.47;;;7.40;99.90;;;;;;5114199;28;20275;-79
2021/03/02 12:31:40;;;;;;;39.97;18.60;;;7.40;99.90;;;;;;5113928;28;20999;-79
2021/03/02 12:34:06;;;;;;;29.33;17.92;;;7.40;99.90;;;;;;5114341;28;20843;-78
2021/03/02 12:36:32;;;;;;;31.53;16.90;;;7.40;99.90;;;;;;5114077;28;20220;-78
2021/03/02 12:38:58;;;;;;;33.57;19.00;;;7.50;99.90;;;;;;5114254;28;20452;-78
2021/03/02 12:41:24;;;;;;;27.73;16.73;;;7.60;99.90;;;;;;5114056;28;20445;-78
2021/03/02 12:43:51;;;;;;;27.02;16.85;;;7.70;99.90;;;;;;5114020;28;20196;-79
2021/03/02 12:46:17;;;;;;;25.00;15.87;;;7.70;99.90;;;;;;5114026;28;20607;-79